sensor_id;sensor_type;location;lat;lon;timestamp;pressure;altitude;pressure_sealevel;temperature;humidity
19208;BME280;9737;59.466;18.036;2023-07-13T00:00:07;98986.22;;;15.07;59.16
19208;BME280;9737;59.466;18.036;2023-07-13T00:02:36;98968.16;;;15.01;58.86
19208;BME280;9737;59.466;18.036;2023-07-13T00:05:06;98978.69;;;15.03;59.04
19208;BME280;9737;59.466;18.036;2023-07-13T00:07:36;98959.47;;;14.99;59.11
19208;BME280;9737;59.466;18.036;2023-07-13T00:10:05;98961.47;;;14.97;59.73
19208;BME280;9737;59.466;18.036;2023-07-13T00:12:36;98969.50;;;14.97;59.83
19208;BME280;9737;59.466;18.036;2023-07-13T00:15:11;98960.66;;;14.97;59.81
19208;BME280;9737;59.466;18.036;2023-07-13T00:17:39;98942.63;;;14.91;60.00
19208;BME280;9737;59.466;18.036;2023-07-13T00:20:07;98911.56;;;14.81;60.00
19208;BME280;9737;59.466;18.036;2023-07-13T00:22:37;98902.88;;;14.79;59.88
19208;BME280;9737;59.466;18.036;2023-07-13T00:25:06;98897.72;;;14.78;60.14
19208;BME280;9737;59.466;18.036;2023-07-13T00:27:34;98870.97;;;14.70;60.45
19208;BME280;9737;59.466;18.036;2023-07-13T00:30:02;98883.19;;;14.72;60.50
19208;BME280;9737;59.466;18.036;2023-07-13T00:32:30;98866.66;;;14.69;60.48
19208;BME280;9737;59.466;18.036;2023-07-13T00:34:58;98834.59;;;14.61;61.02
19208;BME280;9737;59.466;18.036;2023-07-13T00:37:27;98814.91;;;14.53;61.02
19208;BME280;9737;59.466;18.036;2023-07-13T00:39:56;98825.63;;;14.53;61.30
19208;BME280;9737;59.466;18.036;2023-07-13T00:42:24;98795.06;;;14.48;61.44
19208;BME280;9737;59.466;18.036;2023-07-13T00:45:02;98788.88;;;14.47;61.05
19208;BME280;9737;59.466;18.036;2023-07-13T00:47:31;98764.81;;;14.39;61.70
19208;BME280;9737;59.466;18.036;2023-07-13T00:49:59;98773.66;;;14.40;61.48
19208;BME280;9737;59.466;18.036;2023-07-13T00:52:27;98835.31;;;14.54;61.52
19208;BME280;9737;59.466;18.036;2023-07-13T00:54:57;98821.28;;;14.52;61.83
19208;BME280;9737;59.466;18.036;2023-07-13T00:57:25;98864.03;;;14.61;61.94
19208;BME280;9737;59.466;18.036;2023-07-13T00:59:58;98881.38;;;14.65;62.14
19208;BME280;9737;59.466;18.036;2023-07-13T01:02:28;98961.25;;;14.84;62.52
19208;BME280;9737;59.466;18.036;2023-07-13T01:04:56;98985.97;;;14.86;62.36
19208;BME280;9737;59.466;18.036;2023-07-13T01:07:25;98990.16;;;14.88;62.75
19208;BME280;9737;59.466;18.036;2023-07-13T01:09:53;99006.03;;;14.90;62.79
19208;BME280;9737;59.466;18.036;2023-07-13T01:12:22;99033.09;;;14.95;63.14
19208;BME280;9737;59.466;18.036;2023-07-13T01:14:57;99042.78;;;14.96;63.02
19208;BME280;9737;59.466;18.036;2023-07-13T01:17:24;99090.63;;;15.07;63.20
19208;BME280;9737;59.466;18.036;2023-07-13T01:19:52;99084.63;;;15.05;63.07
19208;BME280;9737;59.466;18.036;2023-07-13T01:22:22;99088.97;;;15.06;63.19
19208;BME280;9737;59.466;18.036;2023-07-13T01:24:53;99095.31;;;15.05;63.69
19208;BME280;9737;59.466;18.036;2023-07-13T01:27:24;99103.00;;;15.08;63.63
19208;BME280;9737;59.466;18.036;2023-07-13T01:29:53;99117.88;;;15.11;63.96
19208;BME280;9737;59.466;18.036;2023-07-13T01:32:29;99123.06;;;15.12;63.93
19208;BME280;9737;59.466;18.036;2023-07-13T01:34:58;99105.84;;;15.07;64.07
19208;BME280;9737;59.466;18.036;2023-07-13T01:37:27;99140.81;;;15.13;64.32
19208;BME280;9737;59.466;18.036;2023-07-13T01:39:58;99134.78;;;15.11;64.50
19208;BME280;9737;59.466;18.036;2023-07-13T01:42:28;99124.41;;;15.08;64.39
19208;BME280;9737;59.466;18.036;2023-07-13T01:44:55;99131.44;;;15.09;64.79
19208;BME280;9737;59.466;18.036;2023-07-13T01:47:23;99137.63;;;15.10;64.62
19208;BME280;9737;59.466;18.036;2023-07-13T01:49:53;99156.69;;;15.15;65.16
19208;BME280;9737;59.466;18.036;2023-07-13T01:52:20;99152.53;;;15.12;65.02
19208;BME280;9737;59.466;18.036;2023-07-13T01:54:50;99135.97;;;15.09;65.13
19208;BME280;9737;59.466;18.036;2023-07-13T01:57:18;99152.69;;;15.11;65.19
19208;BME280;9737;59.466;18.036;2023-07-13T01:59:45;99165.91;;;15.12;65.65
19208;BME280;9737;59.466;18.036;2023-07-13T02:02:13;99153.53;;;15.11;65.35
19208;BME280;9737;59.466;18.036;2023-07-13T02:04:41;99150.19;;;15.09;65.52
19208;BME280;9737;59.466;18.036;2023-07-13T02:07:09;99157.38;;;15.09;66.06
19208;BME280;9737;59.466;18.036;2023-07-13T02:09:37;99133.81;;;15.04;66.07
19208;BME280;9737;59.466;18.036;2023-07-13T02:12:07;99135.78;;;15.02;66.31
19208;BME280;9737;59.466;18.036;2023-07-13T02:14:36;99137.47;;;15.03;66.08
19208;BME280;9737;59.466;18.036;2023-07-13T02:17:04;99099.38;;;14.93;66.57
19208;BME280;9737;59.466;18.036;2023-07-13T02:19:32;99121.25;;;14.97;66.50
19208;BME280;9737;59.466;18.036;2023-07-13T02:22:00;99065.78;;;14.82;66.79
19208;BME280;9737;59.466;18.036;2023-07-13T02:24:28;99014.47;;;14.71;66.55
19208;BME280;9737;59.466;18.036;2023-07-13T02:26:56;98992.09;;;14.64;66.93
19208;BME280;9737;59.466;18.036;2023-07-13T02:29:25;99001.63;;;14.66;66.67
19208;BME280;9737;59.466;18.036;2023-07-13T02:31:53;98949.69;;;14.52;66.87
19208;BME280;9737;59.466;18.036;2023-07-13T02:34:22;98917.59;;;14.44;66.92
19208;BME280;9737;59.466;18.036;2023-07-13T02:36:50;98899.38;;;14.40;66.98
19208;BME280;9737;59.466;18.036;2023-07-13T02:39:18;98849.19;;;14.19;67.53
19208;BME280;9737;59.466;18.036;2023-07-13T02:41:45;98867.50;;;14.30;67.58
19208;BME280;9737;59.466;18.036;2023-07-13T02:44:14;98873.50;;;14.32;67.75
19208;BME280;9737;59.466;18.036;2023-07-13T02:46:43;98888.19;;;14.36;67.84
19208;BME280;9737;59.466;18.036;2023-07-13T02:49:11;98856.16;;;14.28;67.92
19208;BME280;9737;59.466;18.036;2023-07-13T02:51:39;98832.78;;;14.22;67.61
19208;BME280;9737;59.466;18.036;2023-07-13T02:54:07;98825.13;;;14.19;67.90
19208;BME280;9737;59.466;18.036;2023-07-13T02:56:35;98813.06;;;14.15;68.04
19208;BME280;9737;59.466;18.036;2023-07-13T02:59:05;98812.25;;;14.14;68.15
19208;BME280;9737;59.466;18.036;2023-07-13T03:01:33;98815.75;;;14.15;68.08
19208;BME280;9737;59.466;18.036;2023-07-13T03:04:03;98820.09;;;14.16;68.16
19208;BME280;9737;59.466;18.036;2023-07-13T03:06:32;98823.59;;;14.16;68.46
19208;BME280;9737;59.466;18.036;2023-07-13T03:09:00;98828.28;;;14.14;68.29
19208;BME280;9737;59.466;18.036;2023-07-13T03:11:28;98835.97;;;14.17;68.84
19208;BME280;9737;59.466;18.036;2023-07-13T03:13:57;98846.50;;;14.19;68.83
19208;BME280;9737;59.466;18.036;2023-07-13T03:16:25;98864.88;;;14.22;68.90
19208;BME280;9737;59.466;18.036;2023-07-13T03:18:53;98876.88;;;14.26;68.80
19208;BME280;9737;59.466;18.036;2023-07-13T03:21:22;98875.56;;;14.14;69.12
19208;BME280;9737;59.466;18.036;2023-07-13T03:23:49;98906.59;;;14.31;69.44
19208;BME280;9737;59.466;18.036;2023-07-13T03:26:19;98909.44;;;14.30;69.35
19208;BME280;9737;59.466;18.036;2023-07-13T03:28:48;98930.31;;;14.34;69.67
19208;BME280;9737;59.466;18.036;2023-07-13T03:31:17;98944.00;;;14.39;69.75
19208;BME280;9737;59.466;18.036;2023-07-13T03:33:46;98939.47;;;14.40;69.83
19208;BME280;9737;59.466;18.036;2023-07-13T03:36:17;98964.38;;;14.40;69.56
19208;BME280;9737;59.466;18.036;2023-07-13T03:38:49;98975.44;;;14.45;69.86
19208;BME280;9737;59.466;18.036;2023-07-13T03:41:17;99002.53;;;14.50;69.90
19208;BME280;9737;59.466;18.036;2023-07-13T03:43:45;99031.25;;;14.56;70.42
19208;BME280;9737;59.466;18.036;2023-07-13T03:46:14;99052.13;;;14.61;69.90
19208;BME280;9737;59.466;18.036;2023-07-13T03:48:43;99093.06;;;14.70;70.48
19208;BME280;9737;59.466;18.036;2023-07-13T03:51:13;99105.09;;;14.74;70.43
19208;BME280;9737;59.466;18.036;2023-07-13T03:53:44;99157.44;;;14.84;70.62
19208;BME280;9737;59.466;18.036;2023-07-13T03:56:13;99178.34;;;14.89;70.86
19208;BME280;9737;59.466;18.036;2023-07-13T03:58:43;99216.81;;;14.96;70.87
19208;BME280;9737;59.466;18.036;2023-07-13T04:01:12;99243.59;;;15.04;71.13
19208;BME280;9737;59.466;18.036;2023-07-13T04:03:40;99274.84;;;15.12;70.85
19208;BME280;9737;59.466;18.036;2023-07-13T04:06:19;99274.38;;;15.08;71.02
19208;BME280;9737;59.466;18.036;2023-07-13T04:08:49;99312.50;;;15.18;71.36
19208;BME280;9737;59.466;18.036;2023-07-13T04:11:20;99331.75;;;15.22;71.12
19208;BME280;9737;59.466;18.036;2023-07-13T04:13:49;99336.94;;;15.24;71.23
19208;BME280;9737;59.466;18.036;2023-07-13T04:16:18;99372.75;;;15.31;71.48
19208;BME280;9737;59.466;18.036;2023-07-13T04:18:47;99380.78;;;15.31;71.59
19208;BME280;9737;59.466;18.036;2023-07-13T04:21:16;99383.28;;;15.32;71.76
19208;BME280;9737;59.466;18.036;2023-07-13T04:23:44;99426.84;;;15.42;71.68
19208;BME280;9737;59.466;18.036;2023-07-13T04:26:11;99446.09;;;15.46;71.94
19208;BME280;9737;59.466;18.036;2023-07-13T04:28:41;99431.34;;;15.42;72.05
19208;BME280;9737;59.466;18.036;2023-07-13T04:31:09;99431.34;;;15.42;71.91
19208;BME280;9737;59.466;18.036;2023-07-13T04:33:37;99420.31;;;15.37;72.27
19208;BME280;9737;59.466;18.036;2023-07-13T04:36:05;99417.63;;;15.37;72.34
19208;BME280;9737;59.466;18.036;2023-07-13T04:38:36;99462.81;;;15.48;72.37
19208;BME280;9737;59.466;18.036;2023-07-13T04:41:06;99534.22;;;15.65;72.26
19208;BME280;9737;59.466;18.036;2023-07-13T04:43:35;99551.66;;;15.69;72.39
19208;BME280;9737;59.466;18.036;2023-07-13T04:46:06;99539.59;;;15.65;72.55
19208;BME280;9737;59.466;18.036;2023-07-13T04:48:34;99587.50;;;15.76;72.36
19208;BME280;9737;59.466;18.036;2023-07-13T04:51:03;99630.41;;;15.85;72.55
19208;BME280;9737;59.466;18.036;2023-07-13T04:53:31;99669.81;;;15.92;72.77
19208;BME280;9737;59.466;18.036;2023-07-13T04:56:01;99689.75;;;15.98;72.75
19208;BME280;9737;59.466;18.036;2023-07-13T04:58:29;99759.50;;;16.14;73.19
19208;BME280;9737;59.466;18.036;2023-07-13T05:00:59;99751.63;;;16.13;72.78
19208;BME280;9737;59.466;18.036;2023-07-13T05:03:29;99742.06;;;16.10;73.06
19208;BME280;9737;59.466;18.036;2023-07-13T05:05:59;99737.03;;;16.07;72.89
19208;BME280;9737;59.466;18.036;2023-07-13T05:08:27;99691.75;;;15.96;72.93
19208;BME280;9737;59.466;18.036;2023-07-13T05:10:55;99716.91;;;16.03;72.95
19208;BME280;9737;59.466;18.036;2023-07-13T05:13:23;99763.19;;;16.13;73.02
19208;BME280;9737;59.466;18.036;2023-07-13T05:15:56;99867.22;;;16.35;73.11
19208;BME280;9737;59.466;18.036;2023-07-13T05:18:24;99879.28;;;16.39;73.21
19208;BME280;9737;59.466;18.036;2023-07-13T05:21:02;99918.59;;;16.49;73.18
19208;BME280;9737;59.466;18.036;2023-07-13T05:23:31;99934.38;;;16.52;73.35
19208;BME280;9737;59.466;18.036;2023-07-13T05:25:59;99931.69;;;16.52;73.21
19208;BME280;9737;59.466;18.036;2023-07-13T05:28:27;99987.91;;;16.61;73.31
19208;BME280;9737;59.466;18.036;2023-07-13T05:30:56;100107.72;;;16.88;73.32
19208;BME280;9737;59.466;18.036;2023-07-13T05:33:24;100094.63;;;16.85;73.33
19208;BME280;9737;59.466;18.036;2023-07-13T05:35:53;100154.41;;;16.95;73.43
19208;BME280;9737;59.466;18.036;2023-07-13T05:38:22;100174.25;;;17.02;73.34
19208;BME280;9737;59.466;18.036;2023-07-13T05:40:50;100273.81;;;17.27;73.44
19208;BME280;9737;59.466;18.036;2023-07-13T05:43:18;100266.75;;;17.26;73.61
19208;BME280;9737;59.466;18.036;2023-07-13T05:45:46;100264.22;;;17.24;73.65
19208;BME280;9737;59.466;18.036;2023-07-13T05:48:14;100248.41;;;17.21;73.37
19208;BME280;9737;59.466;18.036;2023-07-13T05:50:42;100398.97;;;17.55;73.56
19208;BME280;9737;59.466;18.036;2023-07-13T05:53:09;100381.47;;;17.51;73.53
19208;BME280;9737;59.466;18.036;2023-07-13T05:55:41;100355.25;;;17.45;73.53
19208;BME280;9737;59.466;18.036;2023-07-13T05:58:11;100351.72;;;17.45;73.57
19208;BME280;9737;59.466;18.036;2023-07-13T06:00:39;100369.22;;;17.49;73.51
19208;BME280;9737;59.466;18.036;2023-07-13T06:03:07;100489.25;;;17.76;73.58
19208;BME280;9737;59.466;18.036;2023-07-13T06:05:36;100619.94;;;18.04;73.65
19208;BME280;9737;59.466;18.036;2023-07-13T06:08:06;100713.69;;;18.26;73.69
19208;BME280;9737;59.466;18.036;2023-07-13T06:10:35;100688.19;;;18.21;73.56
19208;BME280;9737;59.466;18.036;2023-07-13T06:13:05;100629.56;;;18.07;73.59
19208;BME280;9737;59.466;18.036;2023-07-13T06:15:33;100605.28;;;17.99;73.36
19208;BME280;9737;59.466;18.036;2023-07-13T06:18:00;100668.44;;;18.12;73.54
19208;BME280;9737;59.466;18.036;2023-07-13T06:20:30;100507.09;;;17.77;73.48
19208;BME280;9737;59.466;18.036;2023-07-13T06:22:58;100472.75;;;17.71;73.47
19208;BME280;9737;59.466;18.036;2023-07-13T06:25:26;100381.81;;;17.48;73.34
19208;BME280;9737;59.466;18.036;2023-07-13T06:27:54;100431.63;;;17.60;73.28
19208;BME280;9737;59.466;18.036;2023-07-13T06:30:24;100474.44;;;17.72;73.32
19208;BME280;9737;59.466;18.036;2023-07-13T06:32:52;100422.88;;;17.58;73.30
19208;BME280;9737;59.466;18.036;2023-07-13T06:35:20;100479.81;;;17.72;73.37
19208;BME280;9737;59.466;18.036;2023-07-13T06:37:48;100393.25;;;17.50;73.32
19208;BME280;9737;59.466;18.036;2023-07-13T06:40:16;100336.22;;;17.39;73.08
19208;BME280;9737;59.466;18.036;2023-07-13T06:42:44;100408.75;;;17.56;73.08
19208;BME280;9737;59.466;18.036;2023-07-13T06:45:11;100458.78;;;17.67;73.09
19208;BME280;9737;59.466;18.036;2023-07-13T06:47:40;100501.69;;;17.77;73.11
19208;BME280;9737;59.466;18.036;2023-07-13T06:50:09;100539.41;;;17.85;73.09
19208;BME280;9737;59.466;18.036;2023-07-13T06:52:37;100601.44;;;18.01;73.01
19208;BME280;9737;59.466;18.036;2023-07-13T06:55:06;100640.84;;;18.10;73.01
19208;BME280;9737;59.466;18.036;2023-07-13T06:57:34;100747.88;;;18.34;72.87
19208;BME280;9737;59.466;18.036;2023-07-13T07:00:02;100814.66;;;18.48;73.07
19208;BME280;9737;59.466;18.036;2023-07-13T07:02:29;100840.16;;;18.54;72.89
19208;BME280;9737;59.466;18.036;2023-07-13T07:04:59;101009.47;;;18.94;72.88
19208;BME280;9737;59.466;18.036;2023-07-13T07:07:27;101049.28;;;19.00;72.88
19208;BME280;9737;59.466;18.036;2023-07-13T07:09:55;101094.75;;;19.13;72.76
19208;BME280;9737;59.466;18.036;2023-07-13T07:12:23;101132.72;;;19.19;72.89
19208;BME280;9737;59.466;18.036;2023-07-13T07:14:51;101217.06;;;19.39;72.84
19208;BME280;9737;59.466;18.036;2023-07-13T07:17:19;101160.78;;;19.27;72.58
19208;BME280;9737;59.466;18.036;2023-07-13T07:19:50;101144.06;;;19.23;72.68
19208;BME280;9737;59.466;18.036;2023-07-13T07:22:21;101203.84;;;19.36;72.53
19208;BME280;9737;59.466;18.036;2023-07-13T07:24:49;101249.53;;;19.47;72.55
19208;BME280;9737;59.466;18.036;2023-07-13T07:27:17;101406.88;;;19.85;72.62
19208;BME280;9737;59.466;18.036;2023-07-13T07:29:48;101428.00;;;19.90;72.40
19208;BME280;9737;59.466;18.036;2023-07-13T07:32:36;101369.97;;;19.76;72.39
19208;BME280;9737;59.466;18.036;2023-07-13T07:35:07;101351.41;;;19.73;72.50
19208;BME280;9737;59.466;18.036;2023-07-13T07:37:36;101338.34;;;19.68;72.22
19208;BME280;9737;59.466;18.036;2023-07-13T07:40:08;101347.00;;;19.72;72.27
19208;BME280;9737;59.466;18.036;2023-07-13T07:42:38;101411.13;;;19.88;72.09
19208;BME280;9737;59.466;18.036;2023-07-13T07:45:07;101516.19;;;20.08;72.20
19208;BME280;9737;59.466;18.036;2023-07-13T07:47:34;101535.34;;;20.15;71.94
19208;BME280;9737;59.466;18.036;2023-07-13T07:50:02;101554.81;;;20.19;72.05
19208;BME280;9737;59.466;18.036;2023-07-13T07:52:30;101440.19;;;19.94;71.91
19208;BME280;9737;59.466;18.036;2023-07-13T07:55:00;101515.19;;;20.09;71.95
19208;BME280;9737;59.466;18.036;2023-07-13T07:57:30;101634.78;;;20.39;71.82
19208;BME280;9737;59.466;18.036;2023-07-13T08:00:18;101672.75;;;20.47;71.66
19208;BME280;9737;59.466;18.036;2023-07-13T08:02:49;101671.03;;;20.46;71.63
19208;BME280;9737;59.466;18.036;2023-07-13T08:05:20;101708.16;;;20.54;71.37
19208;BME280;9737;59.466;18.036;2023-07-13T08:08:04;101781.22;;;20.71;71.49
19208;BME280;9737;59.466;18.036;2023-07-13T08:10:35;101771.56;;;20.69;71.40
19208;BME280;9737;59.466;18.036;2023-07-13T08:13:03;101768.72;;;20.70;71.32
19208;BME280;9737;59.466;18.036;2023-07-13T08:15:33;101611.75;;;20.35;71.27
19208;BME280;9737;59.466;18.036;2023-07-13T08:18:01;101641.78;;;20.41;71.12
19208;BME280;9737;59.466;18.036;2023-07-13T08:20:29;101718.38;;;20.60;71.14
19208;BME280;9737;59.466;18.036;2023-07-13T08:22:57;101906.41;;;21.01;71.02
19208;BME280;9737;59.466;18.036;2023-07-13T08:25:25;101985.81;;;21.19;71.08
19208;BME280;9737;59.466;18.036;2023-07-13T08:27:54;101883.34;;;20.97;70.84
19208;BME280;9737;59.466;18.036;2023-07-13T08:30:22;101831.28;;;20.85;70.75
19208;BME280;9737;59.466;18.036;2023-07-13T08:32:50;101842.66;;;20.89;70.67
19208;BME280;9737;59.466;18.036;2023-07-13T08:35:18;101839.97;;;20.89;70.67
19208;BME280;9737;59.466;18.036;2023-07-13T08:37:46;101872.53;;;20.97;70.65
19208;BME280;9737;59.466;18.036;2023-07-13T08:40:14;101865.41;;;20.96;70.55
19208;BME280;9737;59.466;18.036;2023-07-13T08:42:45;101703.31;;;20.57;70.50
19208;BME280;9737;59.466;18.036;2023-07-13T08:45:21;101622.00;;;20.41;70.25
19208;BME280;9737;59.466;18.036;2023-07-13T08:47:52;101776.22;;;20.77;70.20
19208;BME280;9737;59.466;18.036;2023-07-13T08:50:25;101983.56;;;21.24;70.10
19208;BME280;9737;59.466;18.036;2023-07-13T08:52:55;102073.84;;;21.33;70.00
19208;BME280;9737;59.466;18.036;2023-07-13T08:55:28;102340.69;;;22.05;69.83
19208;BME280;9737;59.466;18.036;2023-07-13T08:58:01;102544.44;;;22.48;69.78
19208;BME280;9737;59.466;18.036;2023-07-13T09:00:40;102642.13;;;22.68;69.80
19208;BME280;9737;59.466;18.036;2023-07-13T09:03:18;102624.13;;;22.67;69.61
19208;BME280;9737;59.466;18.036;2023-07-13T09:05:51;102518.59;;;22.44;69.78
19208;BME280;9737;59.466;18.036;2023-07-13T09:08:41;102498.19;;;22.40;69.74
19208;BME280;9737;59.466;18.036;2023-07-13T09:11:23;102618.72;;;22.67;69.57
19208;BME280;9737;59.466;18.036;2023-07-13T09:14:04;102826.22;;;23.12;69.33
19208;BME280;9737;59.466;18.036;2023-07-13T09:16:35;103093.53;;;23.71;69.17
19208;BME280;9737;59.466;18.036;2023-07-13T09:19:07;103196.63;;;23.93;69.36
19208;BME280;9737;59.466;18.036;2023-07-13T09:21:41;103434.31;;;24.44;69.02
19208;BME280;9737;59.466;18.036;2023-07-13T09:24:31;103676.41;;;24.98;69.22
19208;BME280;9737;59.466;18.036;2023-07-13T09:27:13;103571.44;;;24.73;68.96
19208;BME280;9737;59.466;18.036;2023-07-13T09:29:47;103615.69;;;24.86;68.75
19208;BME280;9737;59.466;18.036;2023-07-13T09:32:22;103602.47;;;24.82;68.77
19208;BME280;9737;59.466;18.036;2023-07-13T09:34:52;103445.66;;;24.49;68.49
19208;BME280;9737;59.466;18.036;2023-07-13T09:37:21;103218.44;;;24.03;68.46
19208;BME280;9737;59.466;18.036;2023-07-13T09:39:51;103017.41;;;23.61;68.26
19208;BME280;9737;59.466;18.036;2023-07-13T09:42:21;103051.16;;;23.68;68.08
19208;BME280;9737;59.466;18.036;2023-07-13T09:44:54;103333.00;;;24.30;67.81
19208;BME280;9737;59.466;18.036;2023-07-13T09:47:26;103761.41;;;25.24;67.71
19208;BME280;9737;59.466;18.036;2023-07-13T09:49:56;103844.28;;;25.42;67.86
19208;BME280;9737;59.466;18.036;2023-07-13T09:52:40;104038.16;;;25.82;67.67
19208;BME280;9737;59.466;18.036;2023-07-13T09:55:24;104521.06;;;26.84;67.30
19208;BME280;9737;59.466;18.036;2023-07-13T09:57:53;104743.28;;;27.31;67.54
19208;BME280;9737;59.466;18.036;2023-07-13T10:00:23;104483.44;;;26.77;67.65
19208;BME280;9737;59.466;18.036;2023-07-13T10:03:04;104073.69;;;25.92;67.28
19208;BME280;9737;59.466;18.036;2023-07-13T10:05:41;103894.78;;;25.57;66.92
19208;BME280;9737;59.466;18.036;2023-07-13T10:08:17;104142.25;;;26.10;66.75
19208;BME280;9737;59.466;18.036;2023-07-13T10:10:46;103928.50;;;25.68;66.91
19208;BME280;9737;59.466;18.036;2023-07-13T10:13:36;104044.44;;;25.94;66.53
19208;BME280;9737;59.466;18.036;2023-07-13T10:16:06;104575.03;;;27.05;66.51
19208;BME280;9737;59.466;18.036;2023-07-13T10:18:39;104886.88;;;27.72;66.21
19208;BME280;9737;59.466;18.036;2023-07-13T10:21:13;105302.75;;;28.58;65.95
19208;BME280;9737;59.466;18.036;2023-07-13T10:23:48;105746.63;;;29.48;65.81
19208;BME280;9737;59.466;18.036;2023-07-13T10:26:21;105799.75;;;29.60;65.68
19208;BME280;9737;59.466;18.036;2023-07-13T10:28:54;106031.50;;;30.08;65.23
19208;BME280;9737;59.466;18.036;2023-07-13T10:31:24;106338.63;;;30.70;65.21
19208;BME280;9737;59.466;18.036;2023-07-13T10:33:53;105909.66;;;29.84;65.12
19208;BME280;9737;59.466;18.036;2023-07-13T10:36:30;105218.44;;;28.50;65.08
19208;BME280;9737;59.466;18.036;2023-07-13T10:39:01;104890.78;;;27.81;65.07
19208;BME280;9737;59.466;18.036;2023-07-13T10:41:35;104726.19;;;27.52;64.92
19208;BME280;9737;59.466;18.036;2023-07-13T10:44:04;104511.94;;;27.08;64.44
19208;BME280;9737;59.466;18.036;2023-07-13T10:46:39;104640.66;;;27.38;64.35
19208;BME280;9737;59.466;18.036;2023-07-13T10:49:10;104944.66;;;28.02;64.27
19208;BME280;9737;59.466;18.036;2023-07-13T10:51:39;105133.25;;;28.42;63.63
19208;BME280;9737;59.466;18.036;2023-07-13T10:54:16;105003.81;;;28.16;63.75
19208;BME280;9737;59.466;18.036;2023-07-13T10:56:46;105185.19;;;28.55;63.58
19208;BME280;9737;59.466;18.036;2023-07-13T10:59:22;104796.34;;;27.75;63.18
19208;BME280;9737;59.466;18.036;2023-07-13T11:01:55;104401.75;;;26.96;63.06
19208;BME280;9737;59.466;18.036;2023-07-13T11:04:26;104573.56;;;27.34;62.74
19208;BME280;9737;59.466;18.036;2023-07-13T11:06:58;104656.72;;;27.54;62.51
19208;BME280;9737;59.466;18.036;2023-07-13T11:09:33;104381.63;;;26.97;62.46
19208;BME280;9737;59.466;18.036;2023-07-13T11:12:08;104062.19;;;26.32;62.38
19208;BME280;9737;59.466;18.036;2023-07-13T11:15:02;104061.22;;;26.33;62.27
19208;BME280;9737;59.466;18.036;2023-07-13T11:17:37;104395.56;;;27.05;61.67
19208;BME280;9737;59.466;18.036;2023-07-13T11:20:36;104753.84;;;27.82;61.72
19208;BME280;9737;59.466;18.036;2023-07-13T11:23:18;104526.94;;;27.36;61.84
19208;BME280;9737;59.466;18.036;2023-07-13T11:25:47;104202.06;;;26.67;61.32
19208;BME280;9737;59.466;18.036;2023-07-13T11:28:22;104000.66;;;26.28;61.34
19208;BME280;9737;59.466;18.036;2023-07-13T11:31:02;104586.47;;;27.55;61.33
19208;BME280;9737;59.466;18.036;2023-07-13T11:33:56;105130.34;;;28.67;60.89
19208;BME280;9737;59.466;18.036;2023-07-13T11:36:30;105464.59;;;29.41;60.61
19208;BME280;9737;59.466;18.036;2023-07-13T11:39:02;105371.03;;;29.21;60.84
19208;BME280;9737;59.466;18.036;2023-07-13T11:41:35;104929.81;;;28.29;60.80
19208;BME280;9737;59.466;18.036;2023-07-13T11:44:12;104429.31;;;27.27;60.28
19208;BME280;9737;59.466;18.036;2023-07-13T11:46:45;103961.47;;;26.29;60.24
19208;BME280;9737;59.466;18.036;2023-07-13T11:49:17;104783.94;;;28.04;59.97
19208;BME280;9737;59.466;18.036;2023-07-13T11:51:48;105606.28;;;29.78;59.71
19208;BME280;9737;59.466;18.036;2023-07-13T11:54:25;106260.44;;;31.12;59.53
19208;BME280;9737;59.466;18.036;2023-07-13T11:56:55;106368.09;;;31.33;59.27
19208;BME280;9737;59.466;18.036;2023-07-13T11:59:29;106125.78;;;30.85;59.65
19208;BME280;9737;59.466;18.036;2023-07-13T12:01:58;105266.66;;;29.12;59.35
19208;BME280;9737;59.466;18.036;2023-07-13T12:04:28;104959.97;;;28.51;59.19
19208;BME280;9737;59.466;18.036;2023-07-13T12:07:05;105707.31;;;30.10;58.78
19208;BME280;9737;59.466;18.036;2023-07-13T12:09:34;105702.81;;;30.09;58.69
19208;BME280;9737;59.466;18.036;2023-07-13T12:12:03;105197.72;;;29.05;58.52
19208;BME280;9737;59.466;18.036;2023-07-13T12:14:34;104668.03;;;27.94;58.16
19208;BME280;9737;59.466;18.036;2023-07-13T12:17:09;104982.53;;;28.66;58.32
19208;BME280;9737;59.466;18.036;2023-07-13T12:19:39;105450.00;;;29.64;58.11
19208;BME280;9737;59.466;18.036;2023-07-13T12:22:12;105042.69;;;28.79;58.07
19208;BME280;9737;59.466;18.036;2023-07-13T12:24:41;104636.06;;;27.95;57.52
19208;BME280;9737;59.466;18.036;2023-07-13T12:27:19;104424.41;;;27.53;57.68
19208;BME280;9737;59.466;18.036;2023-07-13T12:29:51;104333.00;;;27.34;57.23
19208;BME280;9737;59.466;18.036;2023-07-13T12:32:24;104251.56;;;27.17;57.14
19208;BME280;9737;59.466;18.036;2023-07-13T12:34:54;104577.13;;;27.91;56.85
19208;BME280;9737;59.466;18.036;2023-07-13T12:37:24;105406.72;;;29.68;57.06
19208;BME280;9737;59.466;18.036;2023-07-13T12:39:52;105836.41;;;30.58;56.83
19208;BME280;9737;59.466;18.036;2023-07-13T12:42:22;105276.31;;;29.40;56.65
19208;BME280;9737;59.466;18.036;2023-07-13T12:44:56;105280.56;;;29.44;56.45
19208;BME280;9737;59.466;18.036;2023-07-13T12:47:25;105475.53;;;29.88;56.23
19208;BME280;9737;59.466;18.036;2023-07-13T12:49:56;105448.59;;;29.82;55.98
19208;BME280;9737;59.466;18.036;2023-07-13T12:52:29;105473.78;;;29.87;56.03
19208;BME280;9737;59.466;18.036;2023-07-13T12:55:03;105624.72;;;30.24;55.98
19208;BME280;9737;59.466;18.036;2023-07-13T12:57:39;105988.28;;;30.98;55.73
19208;BME280;9737;59.466;18.036;2023-07-13T13:00:23;106063.00;;;31.16;55.34
19208;BME280;9737;59.466;18.036;2023-07-13T13:02:53;106284.28;;;31.62;55.59
19208;BME280;9737;59.466;18.036;2023-07-13T13:05:41;106554.63;;;32.20;55.21
19208;BME280;9737;59.466;18.036;2023-07-13T13:08:11;106133.19;;;31.34;55.18
19208;BME280;9737;59.466;18.036;2023-07-13T13:10:39;105419.88;;;29.86;55.14
19208;BME280;9737;59.466;18.036;2023-07-13T13:13:07;104833.84;;;28.64;54.73